createdAt,value
2024-02-10T00:00:41.987Z,96036.97
2024-02-10T00:03:09.095Z,96035.84
2024-02-10T00:05:36.436Z,96041.25
2024-02-10T00:08:04.362Z,96035.41
2024-02-10T00:10:31.230Z,96043.50
2024-02-10T00:13:01.731Z,96053.53
2024-02-10T00:15:29.355Z,96043.44
2024-02-10T00:17:56.024Z,96045.34
2024-02-10T00:20:24.505Z,96048.84
2024-02-10T00:22:52.457Z,96045.34
2024-02-10T00:25:20.516Z,96032.53
2024-02-10T00:27:48.313Z,96038.72
2024-02-10T00:30:18.790Z,96047.59
2024-02-10T00:32:48.458Z,96056.84
2024-02-10T00:35:17.859Z,96048.75
2024-02-10T00:37:45.627Z,96047.97
2024-02-10T00:40:13.034Z,96048.75
2024-02-10T00:42:39.726Z,96046.03
2024-02-10T00:45:10.389Z,96043.75
2024-02-10T00:47:37.143Z,96034.78
2024-02-10T00:50:06.763Z,96037.50
2024-02-10T00:52:33.505Z,96040.56
2024-02-10T00:54:59.967Z,96040.19
2024-02-10T00:57:30.467Z,96043.69
2024-02-10T01:00:00.781Z,96044.47
2024-02-10T01:02:27.377Z,96046.38
2024-02-10T01:04:55.754Z,96047.97
2024-02-10T01:07:27.434Z,96037.13
2024-02-10T01:09:54.203Z,96037.13
2024-02-10T01:12:20.720Z,96036.34
2024-02-10T01:14:47.591Z,96028.59
2024-02-10T01:17:14.505Z,96026.69
2024-02-10T01:19:51.129Z,96019.25
2024-02-10T01:22:28.827Z,96021.63
2024-02-10T01:25:01.002Z,96012.28
2024-02-10T01:27:28.275Z,96020.81
2024-02-10T01:29:58.230Z,96021.63
2024-02-10T01:32:25.933Z,96020.81
2024-02-10T01:34:57.287Z,96027.34
2024-02-10T01:37:29.932Z,96020.03
2024-02-10T01:39:56.750Z,96019.25
2024-02-10T01:42:39.952Z,96020.81
2024-02-10T01:45:15.306Z,96001.47
2024-02-10T01:47:48.178Z,96000.31
2024-02-10T01:50:16.087Z,96007.66
2024-02-10T01:52:44.919Z,95999.53
2024-02-10T01:55:11.987Z,95989.09
2024-02-10T01:57:39.822Z,95984.47
2024-02-10T02:00:09.997Z,95985.25
2024-02-10T02:02:37.865Z,95981.75
2024-02-10T02:05:05.086Z,95978.28
2024-02-10T02:07:34.271Z,95969.72
2024-02-10T02:10:02.540Z,95973.56
2024-02-10T02:12:30.336Z,95970.41
2024-02-10T02:14:59.098Z,95975.81
2024-02-10T02:17:26.819Z,95967.28
2024-02-10T02:19:54.017Z,95966.13
2024-02-10T02:22:21.205Z,95958.72
2024-02-10T02:24:49.166Z,95959.53
2024-02-10T02:27:16.629Z,95958.28
2024-02-10T02:29:43.522Z,95958.28
2024-02-10T02:32:12.245Z,95950.09
2024-02-10T02:34:39.840Z,95943.13
2024-02-10T02:37:08.352Z,95936.16
2024-02-10T02:39:37.731Z,95927.59
2024-02-10T02:42:06.719Z,95929.06
2024-02-10T02:44:33.888Z,95929.44
2024-02-10T02:47:06.932Z,95919.72
2024-02-10T02:49:35.082Z,95914.31
2024-02-10T02:52:04.135Z,95911.53
2024-02-10T02:54:36.065Z,95907.97
2024-02-10T02:57:02.689Z,95921.91
2024-02-10T02:59:29.485Z,95917.31
2024-02-10T03:01:56.628Z,95909.97
2024-02-10T03:04:24.786Z,95898.75
2024-02-10T03:06:52.964Z,95900.97
2024-02-10T03:09:21.286Z,95901.75
2024-02-10T03:11:51.172Z,95901.69
2024-02-10T03:14:17.789Z,95902.81
2024-02-10T03:16:45.936Z,95899.66
2024-02-10T03:19:12.674Z,95898.44
2024-02-10T03:21:39.781Z,95891.47
2024-02-10T03:24:06.953Z,95895.66
2024-02-10T03:26:38.209Z,95894.53
2024-02-10T03:29:06.861Z,95892.94
2024-02-10T03:31:33.899Z,95895.22
2024-02-10T03:34:01.574Z,95875.53
2024-02-10T03:36:29.019Z,95876.56
2024-02-10T03:38:56.165Z,95876.13
2024-02-10T03:41:23.269Z,95866.03
2024-02-10T03:43:50.121Z,95864.00
2024-02-10T03:46:23.135Z,95870.09
2024-02-10T03:48:51.399Z,95873.94
2024-02-10T03:51:18.290Z,95862.25
2024-02-10T03:53:45.202Z,95872.63
2024-02-10T03:56:12.192Z,95870.59
2024-02-10T03:58:44.993Z,95865.19
2024-02-10T04:01:16.353Z,95861.28
2024-02-10T04:03:48.582Z,95862.06
2024-02-10T04:06:17.284Z,95859.72
2024-02-10T04:08:48.036Z,95855.88
2024-02-10T04:11:15.638Z,95865.47
2024-02-10T04:13:45.096Z,95863.44
2024-02-10T04:16:14.234Z,95866.06
2024-02-10T04:18:42.463Z,95868.63
2024-02-10T04:21:10.451Z,95870.00
2024-02-10T04:23:41.682Z,95874.97
2024-02-10T04:26:09.154Z,95876.44
2024-02-10T04:28:36.685Z,95880.16
2024-02-10T04:31:04.632Z,95878.13
2024-02-10T04:33:31.670Z,95881.94
2024-02-10T04:35:58.640Z,95881.09
2024-02-10T04:38:25.298Z,95881.09
2024-02-10T04:40:52.581Z,95876.34
2024-02-10T04:43:21.774Z,95890.19
2024-02-10T04:45:50.070Z,95881.56
2024-02-10T04:48:21.757Z,95876.84
2024-02-10T04:50:48.914Z,95884.25
2024-02-10T04:53:18.582Z,95880.00
2024-02-10T04:55:46.353Z,95880.69
2024-02-10T04:58:14.769Z,95879.56
2024-02-10T05:00:42.332Z,95881.56
2024-02-10T05:03:09.245Z,95887.72
2024-02-10T05:05:36.516Z,95880.88
2024-02-10T05:08:07.482Z,95871.19
2024-02-10T05:10:34.366Z,95873.09
2024-02-10T05:13:00.948Z,95873.09
2024-02-10T05:15:27.677Z,95880.88
2024-02-10T05:17:55.013Z,95878.50
2024-02-10T05:20:28.658Z,95879.63
2024-02-10T05:23:00.195Z,95876.16
2024-02-10T05:25:28.860Z,95873.09
2024-02-10T05:28:03.028Z,95877.06
2024-02-10T05:30:30.231Z,95871.66
2024-02-10T05:33:00.989Z,95873.22
2024-02-10T05:35:27.870Z,95861.31
2024-02-10T05:37:56.552Z,95862.44
2024-02-10T05:40:25.029Z,95858.53
2024-02-10T05:42:53.134Z,95851.53
2024-02-10T05:45:21.269Z,95856.94
2024-02-10T05:47:53.508Z,95858.41
2024-02-10T05:50:24.674Z,95866.84
2024-02-10T05:52:55.350Z,95863.72
2024-02-10T05:55:28.654Z,95861.81
2024-02-10T05:57:57.090Z,95852.13
2024-02-10T06:00:24.462Z,95861.09
2024-02-10T06:02:51.316Z,95858.41
2024-02-10T06:05:19.286Z,95860.41
2024-02-10T06:07:47.386Z,95852.31
2024-02-10T06:10:15.092Z,95870.09
2024-02-10T06:12:51.715Z,95859.31
2024-02-10T06:15:19.752Z,95860.88
2024-02-10T06:17:52.465Z,95870.53
2024-02-10T06:20:24.741Z,95872.53
2024-02-10T06:22:56.101Z,95872.53
2024-02-10T06:25:26.697Z,95877.13
2024-02-10T06:27:56.056Z,95875.56
2024-02-10T06:30:25.868Z,95871.75
2024-02-10T06:32:52.823Z,95865.56
2024-02-10T06:35:21.374Z,95877.50
2024-02-10T06:37:50.979Z,95871.66
2024-02-10T06:40:19.700Z,95875.38
2024-02-10T06:42:52.304Z,95869.88
2024-02-10T06:45:23.621Z,95867.50
2024-02-10T06:47:54.979Z,95881.34
2024-02-10T06:50:30.868Z,95881.34
2024-02-10T06:53:01.708Z,95889.78
2024-02-10T06:55:36.191Z,95882.03
2024-02-10T06:58:04.527Z,95884.03
2024-02-10T07:00:42.106Z,95888.78
2024-02-10T07:03:08.979Z,95882.91
2024-02-10T07:05:35.633Z,95889.88
2024-02-10T07:08:02.597Z,95889.88
2024-02-10T07:10:29.449Z,95894.59
2024-02-10T07:12:58.543Z,95892.78
2024-02-10T07:15:31.908Z,95891.69
2024-02-10T07:17:59.605Z,95884.81
2024-02-10T07:20:27.306Z,95886.03
2024-02-10T07:23:04.033Z,95874.22
2024-02-10T07:25:40.955Z,95870.81
2024-02-10T07:28:10.853Z,95879.81
2024-02-10T07:30:37.914Z,95879.13
2024-02-10T07:33:11.779Z,95886.19
2024-02-10T07:35:40.577Z,95873.13
2024-02-10T07:38:07.565Z,95878.31
2024-02-10T07:40:36.262Z,95875.81
2024-02-10T07:43:05.788Z,95878.53
2024-02-10T07:45:32.682Z,95884.50
2024-02-10T07:48:03.052Z,95874.16
2024-02-10T07:50:29.807Z,95873.38
2024-02-10T07:52:56.499Z,95876.50
2024-02-10T07:55:24.910Z,95877.38
2024-02-10T07:57:52.683Z,95868.16
2024-02-10T08:00:19.942Z,95872.44
2024-02-10T08:02:46.917Z,95865.91
2024-02-10T08:05:16.797Z,95871.38
2024-02-10T08:07:44.182Z,95862.97
2024-02-10T08:10:11.576Z,95863.03
2024-02-10T08:12:38.487Z,95862.69
2024-02-10T08:15:05.670Z,95867.41
2024-02-10T08:17:32.842Z,95868.28
2024-02-10T08:20:03.054Z,95857.94
2024-02-10T08:22:36.045Z,95860.34
2024-02-10T08:25:05.081Z,95865.94
2024-02-10T08:27:32.965Z,95862.13
2024-02-10T08:30:00.963Z,95873.00
2024-02-10T08:32:31.257Z,95873.13
2024-02-10T08:34:58.556Z,95856.19
2024-02-10T08:37:32.019Z,95857.75
2024-02-10T08:39:59.468Z,95855.50
2024-02-10T08:42:28.264Z,95845.13
2024-02-10T08:44:55.104Z,95834.69
2024-02-10T08:47:21.946Z,95840.16
2024-02-10T08:49:50.760Z,95830.91
2024-02-10T08:52:19.275Z,95829.44
2024-02-10T08:54:47.373Z,95827.97
2024-02-10T08:57:17.321Z,95831.78
2024-02-10T08:59:47.234Z,95829.53
2024-02-10T09:02:14.076Z,95831.53
2024-02-10T09:04:41.310Z,95831.09
2024-02-10T09:07:08.605Z,95831.88
2024-02-10T09:09:35.947Z,95831.53
2024-02-10T09:12:03.166Z,95836.16
2024-02-10T09:14:31.450Z,95833.53
2024-02-10T09:16:58.301Z,95840.59
2024-02-10T09:19:25.338Z,95835.19
2024-02-10T09:22:00.901Z,95845.66
2024-02-10T09:24:28.045Z,95842.94
2024-02-10T09:26:57.126Z,95845.72
2024-02-10T09:29:23.852Z,95845.38
2024-02-10T09:31:58.199Z,95841.56
2024-02-10T09:34:25.274Z,95850.88
2024-02-10T09:36:53.255Z,95850.97
2024-02-10T09:39:20.590Z,95848.25
2024-02-10T09:41:48.469Z,95853.31
2024-02-10T09:44:18.396Z,95860.63
2024-02-10T09:46:52.534Z,95859.06
2024-02-10T09:49:20.845Z,95854.34
2024-02-10T09:51:47.634Z,95858.19
2024-02-10T09:54:15.879Z,95861.94
2024-02-10T09:56:45.326Z,95862.28
2024-02-10T09:59:19.955Z,95858.38
2024-02-10T10:01:47.224Z,95863.00
2024-02-10T10:04:14.137Z,95858.22
2024-02-10T10:06:47.146Z,95867.44
2024-02-10T10:09:20.187Z,95869.38
2024-02-10T10:11:49.352Z,95870.16
2024-02-10T10:14:21.590Z,95859.00
2024-02-10T10:17:01.766Z,95858.63
2024-02-10T10:19:29.783Z,95859.41
2024-02-10T10:21:58.629Z,95849.75
2024-02-10T10:24:27.153Z,95852.88
2024-02-10T10:27:00.935Z,95852.19
2024-02-10T10:29:30.542Z,95851.41
2024-02-10T10:32:01.678Z,95854.47
2024-02-10T10:34:33.477Z,95846.78
2024-02-10T10:37:07.209Z,95839.09
2024-02-10T10:39:38.005Z,95834.13
2024-02-10T10:42:05.682Z,95827.59
2024-02-10T10:44:34.029Z,95828.38
2024-02-10T10:47:02.641Z,95819.56
2024-02-10T10:49:29.764Z,95810.31
2024-02-10T10:52:04.412Z,95810.06
2024-02-10T10:54:38.196Z,95791.19
2024-02-10T10:57:17.237Z,95786.25
2024-02-10T11:00:09.639Z,95777.88
2024-02-10T11:02:45.214Z,95774.44
2024-02-10T11:05:14.435Z,95760.97
2024-02-10T11:07:53.202Z,95758.00
2024-02-10T11:10:39.116Z,95748.84
2024-02-10T11:13:13.360Z,95749.25
2024-02-10T11:15:41.754Z,95738.03
2024-02-10T11:18:19.072Z,95728.75
2024-02-10T11:20:46.731Z,95723.00
2024-02-10T11:23:28.140Z,95703.56
2024-02-10T11:26:00.658Z,95700.44
2024-02-10T11:28:28.461Z,95697.72
2024-02-10T11:31:09.687Z,95697.31
2024-02-10T11:33:37.131Z,95689.19
2024-02-10T11:36:04.237Z,95686.84
2024-02-10T11:38:31.178Z,95687.97
2024-02-10T11:40:58.958Z,95679.84
2024-02-10T11:43:28.508Z,95681.09
2024-02-10T11:45:55.110Z,95686.91
2024-02-10T11:48:25.382Z,95681.91
2024-02-10T11:51:02.954Z,95680.81
2024-02-10T11:53:33.590Z,95682.06
2024-02-10T11:56:08.536Z,95675.59
2024-02-10T11:58:37.087Z,95680.34
2024-02-10T12:01:04.303Z,95677.78
2024-02-10T12:03:33.072Z,95677.50
2024-02-10T12:06:01.508Z,95678.00
2024-02-10T12:08:29.345Z,95668.38
2024-02-10T12:10:55.980Z,95661.44
2024-02-10T12:13:27.449Z,95662.28
2024-02-10T12:16:02.285Z,95652.25
2024-02-10T12:18:31.298Z,95659.59
2024-02-10T12:20:58.772Z,95653.81
2024-02-10T12:23:31.224Z,95652.66
2024-02-10T12:26:05.897Z,95660.78
2024-02-10T12:28:34.944Z,95664.63
2024-02-10T12:31:01.871Z,95669.69
2024-02-10T12:33:28.944Z,95674.03
2024-02-10T12:35:57.472Z,95667.47
2024-02-10T12:38:27.410Z,95666.31
2024-02-10T12:40:57.306Z,95650.09
2024-02-10T12:43:26.208Z,95651.19
2024-02-10T12:45:53.447Z,95649.19
2024-02-10T12:48:22.510Z,95646.53
2024-02-10T12:50:50.369Z,95640.28
2024-02-10T12:53:18.024Z,95629.03
2024-02-10T12:55:48.084Z,95632.03
2024-02-10T12:58:15.007Z,95631.63
2024-02-10T13:00:41.789Z,95633.59
2024-02-10T13:03:09.105Z,95642.94
2024-02-10T13:05:36.069Z,95637.53
2024-02-10T13:08:03.298Z,95635.19
2024-02-10T13:10:30.706Z,95635.19
2024-02-10T13:13:00.100Z,95621.22
2024-02-10T13:15:27.310Z,95615.09
2024-02-10T13:17:57.290Z,95619.66
2024-02-10T13:20:28.301Z,95619.25
2024-02-10T13:22:58.281Z,95607.69
2024-02-10T13:25:26.768Z,95616.59
2024-02-10T13:27:53.549Z,95600.84
2024-02-10T13:30:23.460Z,95607.09
2024-02-10T13:32:51.639Z,95611.47
2024-02-10T13:35:20.964Z,95599.56
2024-02-10T13:38:09.473Z,95595.00
2024-02-10T13:40:57.548Z,95587.88
2024-02-10T13:43:44.462Z,95582.25
2024-02-10T13:46:30.148Z,95568.88
2024-02-10T13:49:15.304Z,95571.38
2024-02-10T13:52:02.530Z,95570.19
2024-02-10T13:54:48.127Z,95570.53
2024-02-10T13:57:33.090Z,95563.63
2024-02-10T14:00:02.308Z,95555.94
2024-02-10T14:02:29.089Z,95551.34
2024-02-10T14:05:02.796Z,95547.47
2024-02-10T14:07:32.735Z,95543.63
2024-02-10T14:10:14.034Z,95538.16
2024-02-10T14:12:42.427Z,95546.91
2024-02-10T14:15:18.054Z,95538.47
2024-02-10T14:17:46.994Z,95539.13
2024-02-10T14:20:20.060Z,95531.25
2024-02-10T14:23:00.883Z,95534.25
2024-02-10T14:25:29.375Z,95526.50
2024-02-10T14:28:00.440Z,95535.00
2024-02-10T14:30:39.531Z,95530.28
2024-02-10T14:33:09.884Z,95540.31
2024-02-10T14:35:48.627Z,95530.19
2024-02-10T14:38:37.810Z,95525.16
2024-02-10T14:41:06.001Z,95525.19
2024-02-10T14:43:34.380Z,95518.94
2024-02-10T14:46:13.300Z,95525.47
2024-02-10T14:48:41.900Z,95515.41
2024-02-10T14:51:11.434Z,95512.34
2024-02-10T14:53:44.413Z,95510.78
2024-02-10T14:56:16.546Z,95514.28
2024-02-10T14:58:44.922Z,95509.25
2024-02-10T15:01:13.799Z,95504.56
2024-02-10T15:03:41.026Z,95507.28
2024-02-10T15:06:13.603Z,95503.75
2024-02-10T15:08:42.545Z,95500.56
2024-02-10T15:11:09.222Z,95497.03
2024-02-10T15:13:37.275Z,95509.75
2024-02-10T15:16:04.812Z,95502.38
2024-02-10T15:18:31.643Z,95498.84
2024-02-10T15:21:01.142Z,95499.53
2024-02-10T15:23:28.025Z,95502.66
2024-02-10T15:25:57.759Z,95501.13
2024-02-10T15:28:24.961Z,95494.09
2024-02-10T15:30:53.208Z,95497.16
2024-02-10T15:33:21.976Z,95490.50
2024-02-10T15:35:53.732Z,95488.91
2024-02-10T15:38:25.769Z,95488.50
2024-02-10T15:40:57.928Z,95496.63
2024-02-10T15:43:32.554Z,95485.69
2024-02-10T15:46:01.594Z,95480.66
2024-02-10T15:48:28.262Z,95479.84
2024-02-10T15:50:56.252Z,95475.59
2024-02-10T15:53:31.354Z,95478.63
2024-02-10T15:55:58.597Z,95474.31
2024-02-10T15:58:25.535Z,95475.41
2024-02-10T16:00:54.983Z,95481.56
2024-02-10T16:03:22.455Z,95478.03
2024-02-10T16:06:02.154Z,95479.53
2024-02-10T16:08:28.727Z,95481.78
2024-02-10T16:10:56.920Z,95485.25
2024-02-10T16:13:28.565Z,95487.06
2024-02-10T16:15:55.205Z,95476.97
2024-02-10T16:18:21.990Z,95478.84
2024-02-10T16:20:50.638Z,95471.44
2024-02-10T16:23:18.591Z,95465.94
2024-02-10T16:25:46.802Z,95479.78
2024-02-10T16:28:17.430Z,95470.44
2024-02-10T16:30:44.737Z,95482.75
2024-02-10T16:33:19.785Z,95482.28
2024-02-10T16:35:46.543Z,95479.88
2024-02-10T16:38:16.196Z,95485.56
2024-02-10T16:40:46.354Z,95481.63
2024-02-10T16:43:21.616Z,95492.03
2024-02-10T16:45:49.711Z,95488.47
2024-02-10T16:48:16.622Z,95483.81
2024-02-10T16:50:43.275Z,95484.50
2024-02-10T16:53:10.250Z,95485.25
2024-02-10T16:55:38.805Z,95502.22
2024-02-10T16:58:09.447Z,95493.25
2024-02-10T17:00:44.140Z,95501.28
2024-02-10T17:03:19.906Z,95509.75
2024-02-10T17:05:53.188Z,95515.13
2024-02-10T17:08:37.487Z,95513.06
2024-02-10T17:11:04.373Z,95521.53
2024-02-10T17:13:31.410Z,95519.53
2024-02-10T17:15:58.345Z,95512.94
2024-02-10T17:18:25.496Z,95530.72
2024-02-10T17:20:59.114Z,95534.19
2024-02-10T17:23:26.267Z,95528.72
2024-02-10T17:26:01.704Z,95540.75
2024-02-10T17:28:31.952Z,95533.41
2024-02-10T17:30:58.963Z,95539.59
2024-02-10T17:33:25.922Z,95545.00
2024-02-10T17:35:54.859Z,95542.31
2024-02-10T17:38:27.447Z,95542.66
2024-02-10T17:40:57.551Z,95535.25
2024-02-10T17:43:25.029Z,95543.72
2024-02-10T17:45:56.311Z,95547.94
2024-02-10T17:48:24.965Z,95539.84
2024-02-10T17:50:54.122Z,95549.50
2024-02-10T17:53:28.264Z,95551.06
2024-02-10T17:55:56.680Z,95551.78
2024-02-10T17:58:32.728Z,95560.31
2024-02-10T18:01:01.594Z,95559.44
2024-02-10T18:03:32.463Z,95566.41
2024-02-10T18:06:01.766Z,95559.44
2024-02-10T18:08:30.773Z,95564.84
2024-02-10T18:10:58.087Z,95572.97
2024-02-10T18:13:25.062Z,95572.59
2024-02-10T18:15:52.154Z,95580.38
2024-02-10T18:18:19.581Z,95568.41
2024-02-10T18:20:49.438Z,95566.84
2024-02-10T18:23:16.181Z,95572.25
2024-02-10T18:25:45.237Z,95578.81
2024-02-10T18:28:14.785Z,95590.31
2024-02-10T18:30:46.664Z,95589.94
2024-02-10T18:33:16.198Z,95587.25
2024-02-10T18:35:44.236Z,95595.72
2024-02-10T18:38:13.373Z,95601.50
2024-02-10T18:40:40.403Z,95602.63
2024-02-10T18:43:07.421Z,95606.53
2024-02-10T18:45:36.172Z,95591.03
2024-02-10T18:48:03.387Z,95599.94
2024-02-10T18:50:32.089Z,95586.34
2024-02-10T18:53:02.281Z,95599.84
2024-02-10T18:55:30.453Z,95606.75
2024-02-10T18:58:02.061Z,95601.25
2024-02-10T19:00:33.976Z,95601.63
2024-02-10T19:03:01.585Z,95596.56
2024-02-10T19:05:29.930Z,95593.47
2024-02-10T19:07:56.727Z,95600.69
2024-02-10T19:10:25.659Z,95599.91
2024-02-10T19:12:54.775Z,95600.97
2024-02-10T19:15:22.872Z,95605.94
2024-02-10T19:17:54.106Z,95604.38
2024-02-10T19:20:25.352Z,95611.72
2024-02-10T19:22:53.540Z,95613.63
2024-02-10T19:25:24.701Z,95615.47
2024-02-10T19:27:51.584Z,95622.78
2024-02-10T19:33:03.278Z,95612.75
2024-02-10T19:35:30.132Z,95616.59
2024-02-10T19:37:56.903Z,95622.00
2024-02-10T19:40:24.884Z,95616.97
2024-02-10T19:42:57.170Z,95628.09
2024-02-10T19:45:27.682Z,95631.94
2024-02-10T19:47:55.649Z,95627.66
2024-02-10T19:50:22.676Z,95635.34
2024-02-10T19:52:50.774Z,95634.94
2024-02-10T19:55:23.182Z,95633.34
2024-02-10T19:57:50.644Z,95644.13
2024-02-10T20:00:19.603Z,95646.50
2024-02-10T20:02:48.874Z,95648.75
2024-02-10T20:05:18.740Z,95655.81
2024-02-10T20:07:46.229Z,95639.19
2024-02-10T20:10:19.678Z,95647.72
2024-02-10T20:12:48.045Z,95657.38
2024-02-10T20:15:14.984Z,95654.66
2024-02-10T20:17:48.592Z,95654.31
2024-02-10T20:20:18.996Z,95656.22
2024-02-10T20:22:46.440Z,95660.50
2024-02-10T20:25:16.620Z,95658.94
2024-02-10T20:27:45.195Z,95665.91
2024-02-10T20:30:13.206Z,95656.69
2024-02-10T20:32:40.778Z,95664.34
2024-02-10T20:35:11.628Z,95667.50
2024-02-10T20:37:40.069Z,95669.06
2024-02-10T20:40:13.887Z,95669.13
2024-02-10T20:42:41.305Z,95683.84
2024-02-10T20:45:08.670Z,95674.63
2024-02-10T20:47:38.877Z,95671.91
2024-02-10T20:50:07.647Z,95668.84
2024-02-10T20:52:35.488Z,95667.72
2024-02-10T20:55:02.183Z,95683.56
2024-02-10T20:57:34.586Z,95673.53
2024-02-10T21:00:07.496Z,95670.84
2024-02-10T21:02:34.910Z,95666.56
2024-02-10T21:05:04.727Z,95668.50
2024-02-10T21:07:32.876Z,95666.94
2024-02-10T21:09:59.734Z,95659.97
2024-02-10T21:12:30.418Z,95663.09
2024-02-10T21:14:57.049Z,95661.53
2024-02-10T21:17:23.561Z,95673.53
2024-02-10T21:19:50.359Z,95666.56
2024-02-10T21:22:17.094Z,95662.72
2024-02-10T21:24:44.018Z,95667.34
2024-02-10T21:29:45.604Z,95680.84
2024-02-10T21:32:13.623Z,95685.13
2024-02-10T21:34:42.447Z,95691.66
2024-02-10T21:37:09.521Z,95685.47
2024-02-10T21:39:37.153Z,95699.00
2024-02-10T21:42:09.019Z,95692.81
2024-02-10T21:44:37.230Z,95687.41
2024-02-10T21:47:04.286Z,95693.94
2024-02-10T21:49:32.568Z,95693.53
2024-02-10T21:52:00.426Z,95697.78
2024-02-10T21:54:27.461Z,95699.34
2024-02-10T21:56:54.888Z,95700.91
2024-02-10T21:59:21.999Z,95706.31
2024-02-10T22:01:53.212Z,95711.72
2024-02-10T22:04:22.871Z,95714.41
2024-02-10T22:06:51.962Z,95713.28
2024-02-10T22:09:21.966Z,95717.13
2024-02-10T22:11:48.747Z,95710.16
2024-02-10T22:14:15.479Z,95708.59
2024-02-10T22:16:43.897Z,95710.88
2024-02-10T22:19:12.347Z,95713.91
2024-02-10T22:21:39.690Z,95710.09
2024-02-10T22:24:06.356Z,95718.50
2024-02-10T22:26:34.451Z,95711.56
2024-02-10T22:29:01.459Z,95716.94
2024-02-10T22:31:43.515Z,95718.09
2024-02-10T22:34:13.145Z,95714.50
2024-02-10T22:36:49.019Z,95724.22
2024-02-10T22:39:25.506Z,95723.75
2024-02-10T22:41:56.325Z,95722.19
2024-02-10T22:44:26.622Z,95722.63
2024-02-10T22:47:02.606Z,95734.19
2024-02-10T22:49:37.535Z,95738.91
2024-02-10T22:52:09.712Z,95740.06
2024-02-10T22:54:38.868Z,95740.84
2024-02-10T22:57:06.071Z,95746.66
2024-02-10T22:59:33.486Z,95748.69
2024-02-10T23:02:02.360Z,95747.09
2024-02-10T23:04:29.426Z,95754.88
2024-02-10T23:06:56.202Z,95752.50
2024-02-10T23:09:35.535Z,95755.66
2024-02-10T23:12:05.125Z,95772.63
2024-02-10T23:14:32.207Z,95767.59
2024-02-10T23:17:02.700Z,95771.06
2024-02-10T23:19:35.258Z,95781.53
2024-02-10T23:22:03.165Z,95783.34
2024-02-10T23:24:31.498Z,95791.13
2024-02-10T23:27:00.279Z,95791.91
2024-02-10T23:29:31.939Z,95791.91
2024-02-10T23:32:03.100Z,95804.25
2024-02-10T23:34:31.312Z,95805.81
2024-02-10T23:37:04.862Z,95801.56
2024-02-10T23:39:34.584Z,95806.59
2024-02-10T23:42:02.904Z,95811.22
2024-02-10T23:44:30.130Z,95819.75
2024-02-10T23:46:56.933Z,95829.44
2024-02-10T23:49:23.761Z,95825.59
2024-02-10T23:51:50.332Z,95826.72
2024-02-10T23:54:19.403Z,95829.00
2024-02-10T23:56:46.309Z,95831.28
2024-02-10T23:59:13.258Z,95842.88
